Aviation Digital Data Service (ADDS)

Output produced by METARs form (1008 UTC 10 December 2022)
found at http://aviationweather.gov/metar/data/
 
METAR text: ETMN 100920Z AUTO 14005KT 7000 // ////// M01/M03 Q1010 ///
Conditions at: ETMN (NORDHOLZ (GER-NA, DE) observed 0920 UTC 10 December 2022
Temperature: -1.0°C (30°F)
Dewpoint: -3.0°C (27°F) [RH = 86%]
Pressure (altimeter): 29.82 inches Hg (1010.0 mb)
Winds: from the SE (140 degrees) at 6 MPH (5 knots; 2.6 m/s)
Visibility: 4 miles ( 7 km)
Ceiling: unknown
Clouds: missing
Weather: no significant weather observed at this time